createdAt,value
2022-07-28T00:03:04.042Z,102083.59
2022-07-28T00:08:06.169Z,102087.56
2022-07-28T00:13:07.691Z,102058.47
2022-07-28T00:18:09.211Z,102051.94
2022-07-28T00:23:10.765Z,102069.31
2022-07-28T00:28:12.275Z,102065.56
2022-07-28T00:33:13.827Z,102033.88
2022-07-28T00:38:15.392Z,102070.72
2022-07-28T00:43:16.967Z,102040.78
2022-07-28T00:48:18.472Z,102057.13
2022-07-28T00:53:20.398Z,102052.28
2022-07-28T00:58:21.943Z,102047.97
2022-07-28T01:03:24.739Z,102031.16
2022-07-28T01:09:01.020Z,102030.81
2022-07-28T01:14:11.442Z,102017.56
2022-07-28T01:19:32.662Z,102024.97
2022-07-28T01:24:47.411Z,102020.47
2022-07-28T01:30:26.198Z,102008.13
2022-07-28T01:35:33.485Z,102013.09
2022-07-28T01:40:36.966Z,102007.06
2022-07-28T01:45:41.193Z,101997.78
2022-07-28T01:50:44.299Z,102003.81
2022-07-28T01:55:47.222Z,102004.50
2022-07-28T02:00:50.457Z,102004.16
2022-07-28T02:05:53.915Z,101998.81
2022-07-28T02:11:15.452Z,102011.38
2022-07-28T02:16:20.889Z,102008.78
2022-07-28T02:21:25.373Z,101976.28
2022-07-28T02:26:32.153Z,101990.22
2022-07-28T02:31:42.128Z,102003.28
2022-07-28T02:36:49.511Z,101984.53
2022-07-28T02:41:58.189Z,101996.94
2022-07-28T02:47:01.417Z,101982.13
2022-07-28T02:52:07.679Z,101990.88
2022-07-28T02:57:10.525Z,101982.63
2022-07-28T03:02:13.276Z,101973.72
2022-07-28T03:07:15.297Z,101976.81
2022-07-28T03:12:17.237Z,101969.25
2022-07-28T03:17:19.511Z,101991.59
2022-07-28T03:22:21.126Z,101974.06
2022-07-28T03:27:31.016Z,102003.13
2022-07-28T03:32:36.063Z,101993.31
2022-07-28T03:37:49.456Z,101994.00
2022-07-28T03:42:51.998Z,102026.84
2022-07-28T03:47:56.268Z,102013.63
2022-07-28T03:52:59.756Z,102010.16
2022-07-28T03:58:01.519Z,101998.47
2022-07-28T04:03:03.086Z,102020.31
2022-07-28T04:08:05.531Z,102022.19
2022-07-28T04:13:07.856Z,101985.59
2022-07-28T04:18:09.382Z,102010.16
2022-07-28T04:23:10.932Z,102012.75
2022-07-28T04:28:12.487Z,102019.09
2022-07-28T04:33:14.041Z,102017.56
2022-07-28T04:38:18.101Z,102040.06
2022-07-28T04:43:19.824Z,102025.63
2022-07-28T04:48:24.725Z,102044.53
2022-07-28T04:53:26.308Z,102012.22
2022-07-28T04:58:28.009Z,102045.41
2022-07-28T05:03:36.161Z,102036.66
2022-07-28T05:08:38.058Z,102046.09
2022-07-28T05:13:39.553Z,102039.72
2022-07-28T05:18:41.050Z,102038.19
2022-07-28T05:23:47.377Z,102027.53
2022-07-28T05:28:49.235Z,102029.59
2022-07-28T05:33:50.812Z,102038.38
2022-07-28T05:38:53.804Z,102037.66
2022-07-28T05:43:55.345Z,102041.09
2022-07-28T05:48:57.249Z,102045.56
2022-07-28T05:53:58.829Z,102044.53
2022-07-28T05:59:00.377Z,102055.91
2022-07-28T06:04:27.316Z,102048.97
2022-07-28T06:09:23.426Z,102063.06
2022-07-28T06:14:24.944Z,102060.81
2022-07-28T06:19:26.703Z,102061.25
2022-07-28T06:24:28.541Z,102068.56
2022-07-28T06:29:30.538Z,102059.69
2022-07-28T06:34:32.053Z,102063.75
2022-07-28T06:39:33.559Z,102066.75
2022-07-28T06:44:57.416Z,102052.94
2022-07-28T06:49:56.771Z,102061.72
2022-07-28T06:54:59.920Z,102063.94
2022-07-28T07:00:06.833Z,102062.19
2022-07-28T07:05:09.859Z,102070.78
2022-07-28T07:10:11.707Z,102064.03
2022-07-28T07:15:13.320Z,102068.41
2022-07-28T07:20:17.202Z,102055.69
2022-07-28T07:25:20.117Z,102047.47
2022-07-28T07:30:21.685Z,102059.75
2022-07-28T07:35:23.467Z,102056.75
2022-07-28T07:40:25.058Z,102062.66
2022-07-28T07:45:26.704Z,102052.06
2022-07-28T07:50:28.442Z,102052.88
2022-07-28T07:55:34.521Z,102043.00
2022-07-28T08:00:39.297Z,102035.66
2022-07-28T08:05:40.828Z,102044.81
2022-07-28T08:10:42.345Z,102030.97
2022-07-28T08:15:43.873Z,102019.75
2022-07-28T08:20:45.463Z,102031.41
2022-07-28T08:25:47.004Z,102029.22
2022-07-28T08:30:48.512Z,102026.81
2022-07-28T08:35:50.537Z,102023.75
2022-07-28T08:40:56.725Z,102022.06
2022-07-28T08:46:01.523Z,102037.56
2022-07-28T08:51:07.346Z,102037.78
2022-07-28T08:56:13.861Z,102037.03
2022-07-28T09:01:17.024Z,102023.00
2022-07-28T09:06:22.138Z,102025.72
2022-07-28T09:11:28.151Z,102017.25
2022-07-28T09:16:29.875Z,102011.63
2022-07-28T09:21:31.696Z,102019.94
2022-07-28T09:26:33.214Z,102020.59
2022-07-28T09:31:34.835Z,102024.34
2022-07-28T09:36:41.411Z,102016.22
2022-07-28T09:41:53.150Z,102016.94
2022-07-28T09:46:56.244Z,102024.19
2022-07-28T09:52:03.360Z,102021.03
2022-07-28T09:57:05.017Z,102018.78
2022-07-28T10:02:06.924Z,102017.31
2022-07-28T10:07:17.418Z,102006.50
2022-07-28T10:12:21.403Z,102011.84
2022-07-28T10:17:24.823Z,102011.44
2022-07-28T10:22:33.731Z,101993.53
2022-07-28T10:27:36.655Z,101994.59
2022-07-28T10:32:44.604Z,101997.13
2022-07-28T10:37:57.573Z,101999.31
2022-07-28T10:43:00.519Z,102001.56
2022-07-28T10:48:04.119Z,101990.75
2022-07-28T10:53:07.921Z,102007.31
2022-07-28T10:58:33.863Z,102001.53
2022-07-28T11:03:45.546Z,102000.19
2022-07-28T11:08:47.517Z,101998.53
2022-07-28T11:13:50.341Z,102000.91
2022-07-28T11:19:36.639Z,102003.84
2022-07-28T11:24:58.632Z,102005.38
2022-07-28T11:30:00.311Z,101991.53
2022-07-28T11:35:07.512Z,101987.38
2022-07-28T11:40:45.725Z,101985.22
2022-07-28T11:45:56.020Z,101984.00
2022-07-28T11:51:03.970Z,101984.47
2022-07-28T11:56:10.724Z,101974.00
2022-07-28T12:01:17.945Z,101977.34
2022-07-28T12:06:26.256Z,101964.03
2022-07-28T12:11:35.530Z,101959.41
2022-07-28T12:16:39.972Z,101957.88
2022-07-28T12:21:50.325Z,101949.63
2022-07-28T12:26:51.953Z,101943.31
2022-07-28T12:31:59.244Z,101945.69
2022-07-28T12:37:04.149Z,101936.47
2022-07-28T12:42:11.694Z,101936.31
2022-07-28T12:47:15.269Z,101939.09
2022-07-28T12:52:17.621Z,101940.72
2022-07-28T12:57:47.944Z,101925.22
2022-07-28T13:02:52.798Z,101927.84
2022-07-28T13:08:05.678Z,101920.69
2022-07-28T13:13:07.860Z,101920.38
2022-07-28T13:18:09.446Z,101905.91
2022-07-28T13:23:11.401Z,101914.13
2022-07-28T13:28:26.907Z,101920.38
2022-07-28T13:33:28.574Z,101921.84
2022-07-28T13:38:30.417Z,101914.00
2022-07-28T13:43:36.069Z,101899.69
2022-07-28T13:48:59.870Z,101901.66
2022-07-28T13:54:01.779Z,101894.81
2022-07-28T13:59:03.455Z,101899.16
2022-07-28T14:04:13.135Z,101875.28
2022-07-28T14:09:21.035Z,101886.19
2022-07-28T14:14:24.832Z,101883.84
2022-07-28T14:19:38.202Z,101875.72
2022-07-28T14:24:43.554Z,101871.03
2022-07-28T14:29:45.761Z,101866.94
2022-07-28T14:34:47.402Z,101871.16
2022-07-28T14:39:48.934Z,101871.38
2022-07-28T14:44:50.526Z,101873.53
2022-07-28T14:49:58.023Z,101873.06
2022-07-28T14:55:00.142Z,101863.41
2022-07-28T15:00:01.723Z,101870.69
2022-07-28T15:05:03.937Z,101858.88
2022-07-28T15:10:06.738Z,101845.59
2022-07-28T15:15:09.106Z,101842.66
2022-07-28T15:20:11.419Z,101862.31
2022-07-28T15:25:12.952Z,101858.09
2022-07-28T15:30:14.586Z,101853.56
2022-07-28T15:35:18.307Z,101846.88
2022-07-28T15:40:20.036Z,101848.59
2022-07-28T15:45:23.874Z,101840.28
2022-07-28T15:50:25.618Z,101845.59
2022-07-28T15:55:27.168Z,101845.88
2022-07-28T16:00:28.722Z,101832.47
2022-07-28T16:05:30.236Z,101834.53
2022-07-28T16:10:33.272Z,101834.34
2022-07-28T16:15:34.798Z,101839.47
2022-07-28T16:20:37.322Z,101817.88
2022-07-28T16:25:44.597Z,101823.41
2022-07-28T16:30:47.891Z,101806.56
2022-07-28T16:35:49.544Z,101811.50
2022-07-28T16:40:53.864Z,101811.72
2022-07-28T16:45:55.536Z,101810.81
2022-07-28T16:50:57.130Z,101823.81
2022-07-28T16:55:58.683Z,101827.25
2022-07-28T17:01:01.425Z,101822.59
2022-07-28T17:06:03.734Z,101817.72
2022-07-28T17:11:05.255Z,101810.28
2022-07-28T17:16:07.136Z,101819.03
2022-07-28T17:21:08.713Z,101799.34
2022-07-28T17:31:33.811Z,101800.19
2022-07-28T17:36:41.982Z,101805.94
2022-07-28T17:41:43.782Z,101811.03
2022-07-28T17:46:46.716Z,101812.31
2022-07-28T17:51:48.439Z,101793.94
2022-07-28T17:56:49.945Z,101802.50
2022-07-28T18:01:51.533Z,101792.88
2022-07-28T18:06:53.083Z,101797.31
2022-07-28T18:11:57.706Z,101794.72
2022-07-28T18:17:02.729Z,101796.78
2022-07-28T18:22:05.194Z,101787.59
2022-07-28T18:27:06.938Z,101791.63
2022-07-28T18:32:09.828Z,101794.75
2022-07-28T18:37:15.490Z,101797.91
2022-07-28T18:42:17.536Z,101795.31
2022-07-28T18:47:19.990Z,101800.16
2022-07-28T18:52:23.002Z,101797.47
2022-07-28T18:57:24.538Z,101800.84
2022-07-28T19:02:27.294Z,101800.97
2022-07-28T19:07:29.847Z,101803.22
2022-07-28T19:12:31.493Z,101807.19
2022-07-28T19:17:34.029Z,101804.03
2022-07-28T19:22:35.536Z,101805.91
2022-07-28T19:27:37.597Z,101824.53
2022-07-28T19:32:41.653Z,101820.44
2022-07-28T19:37:45.915Z,101829.91
2022-07-28T19:42:48.478Z,101830.28
2022-07-28T19:47:50.232Z,101829.31
2022-07-28T19:52:51.848Z,101834.56
2022-07-28T19:57:55.250Z,101846.28
2022-07-28T20:02:56.833Z,101853.13
2022-07-28T20:07:58.424Z,101847.50
2022-07-28T20:13:00.087Z,101853.59
2022-07-28T20:18:01.808Z,101848.78
2022-07-28T20:23:03.779Z,101849.44
2022-07-28T20:28:06.097Z,101852.59
2022-07-28T20:33:08.214Z,101854.41
2022-07-28T20:38:09.733Z,101867.84
2022-07-28T20:43:11.659Z,101860.50
2022-07-28T20:48:14.419Z,101863.25
2022-07-28T20:53:16.269Z,101869.84
2022-07-28T20:58:17.790Z,101860.69
2022-07-28T21:03:21.356Z,101876.22
2022-07-28T21:08:23.241Z,101871.06
2022-07-28T21:13:25.017Z,101879.47
2022-07-28T21:18:26.576Z,101883.28
2022-07-28T21:23:28.214Z,101882.31
2022-07-28T21:28:55.703Z,101875.63
2022-07-28T21:33:57.219Z,101891.72
2022-07-28T21:38:58.837Z,101878.31
2022-07-28T21:44:04.217Z,101872.47
2022-07-28T21:49:06.336Z,101891.13
2022-07-28T21:54:08.315Z,101887.31
2022-07-28T21:59:09.856Z,101893.41
2022-07-28T22:04:11.552Z,101887.88
2022-07-28T22:09:13.193Z,101883.22
2022-07-28T22:14:14.936Z,101891.50
2022-07-28T22:19:16.704Z,101890.47
2022-07-28T22:24:18.601Z,101892.84
2022-07-28T22:29:20.404Z,101897.41
2022-07-28T22:34:21.892Z,101909.59
2022-07-28T22:39:24.507Z,101904.28
2022-07-28T22:44:26.156Z,101892.06
2022-07-28T22:49:27.717Z,101894.34
2022-07-28T22:54:29.500Z,101897.28
2022-07-28T22:59:32.965Z,101898.53
2022-07-28T23:04:41.455Z,101904.03
2022-07-28T23:09:43.445Z,101889.91
2022-07-28T23:14:45.007Z,101883.06
2022-07-28T23:19:46.622Z,101893.69
2022-07-28T23:24:48.197Z,101897.28
2022-07-28T23:29:49.821Z,101895.56
2022-07-28T23:34:51.421Z,101890.03
2022-07-28T23:39:53.019Z,101904.03
2022-07-28T23:44:54.596Z,101882.91
2022-07-28T23:49:56.138Z,101881.16
2022-07-28T23:54:57.685Z,101880.31
